sensor_id;sensor_type;location;lat;lon;timestamp;P1;durP1;ratioP1;P2;durP2;ratioP2
64560;SDS011;50960;46.838;16.838;2023-07-09T03:46:59;7.70;;;5.25;;
64560;SDS011;50960;46.838;16.838;2023-07-09T03:49:26;5.95;;;5.30;;
64560;SDS011;50960;46.838;16.838;2023-07-09T03:51:53;6.57;;;5.28;;
64560;SDS011;50960;46.838;16.838;2023-07-09T03:54:19;6.43;;;5.30;;
64560;SDS011;50960;46.838;16.838;2023-07-09T03:56:46;7.22;;;5.03;;
64560;SDS011;50960;46.838;16.838;2023-07-09T03:59:12;6.95;;;5.55;;
64560;SDS011;50960;46.838;16.838;2023-07-09T04:01:38;6.63;;;5.50;;
64560;SDS011;50960;46.838;16.838;2023-07-09T04:04:05;7.22;;;5.57;;
64560;SDS011;50960;46.838;16.838;2023-07-09T04:06:31;5.60;;;5.13;;
64560;SDS011;50960;46.838;16.838;2023-07-09T04:08:58;7.35;;;5.13;;
64560;SDS011;50960;46.838;16.838;2023-07-09T04:11:24;5.72;;;5.18;;
64560;SDS011;50960;46.838;16.838;2023-07-09T04:13:50;5.18;;;4.72;;
64560;SDS011;50960;46.838;16.838;2023-07-09T04:16:17;11.52;;;7.88;;
64560;SDS011;50960;46.838;16.838;2023-07-09T04:18:43;11.77;;;9.40;;
64560;SDS011;50960;46.838;16.838;2023-07-09T04:21:09;12.45;;;9.40;;
64560;SDS011;50960;46.838;16.838;2023-07-09T04:23:35;8.70;;;6.55;;
64560;SDS011;50960;46.838;16.838;2023-07-09T04:26:02;8.50;;;7.07;;
64560;SDS011;50960;46.838;16.838;2023-07-09T04:28:28;8.07;;;6.55;;
64560;SDS011;50960;46.838;16.838;2023-07-09T04:30:55;6.50;;;5.53;;
64560;SDS011;50960;46.838;16.838;2023-07-09T04:33:22;9.23;;;6.15;;
64560;SDS011;50960;46.838;16.838;2023-07-09T04:35:48;6.00;;;5.43;;
64560;SDS011;50960;46.838;16.838;2023-07-09T04:38:15;6.10;;;5.50;;
64560;SDS011;50960;46.838;16.838;2023-07-09T04:40:41;6.03;;;5.43;;
64560;SDS011;50960;46.838;16.838;2023-07-09T04:43:08;7.10;;;5.85;;
64560;SDS011;50960;46.838;16.838;2023-07-09T04:45:34;9.43;;;6.18;;
64560;SDS011;50960;46.838;16.838;2023-07-09T04:48:00;6.80;;;5.50;;
64560;SDS011;50960;46.838;16.838;2023-07-09T04:50:27;6.32;;;5.32;;
64560;SDS011;50960;46.838;16.838;2023-07-09T04:52:54;8.32;;;5.78;;
64560;SDS011;50960;46.838;16.838;2023-07-09T04:55:20;6.18;;;5.60;;
64560;SDS011;50960;46.838;16.838;2023-07-09T04:57:46;6.82;;;6.22;;
64560;SDS011;50960;46.838;16.838;2023-07-09T05:00:13;6.25;;;5.65;;
64560;SDS011;50960;46.838;16.838;2023-07-09T05:02:39;7.05;;;6.10;;
64560;SDS011;50960;46.838;16.838;2023-07-09T05:05:06;6.85;;;5.88;;
64560;SDS011;50960;46.838;16.838;2023-07-09T05:07:32;7.38;;;5.78;;
64560;SDS011;50960;46.838;16.838;2023-07-09T05:09:59;6.40;;;5.80;;
64560;SDS011;50960;46.838;16.838;2023-07-09T05:12:28;7.65;;;6.22;;
64560;SDS011;50960;46.838;16.838;2023-07-09T05:14:55;8.30;;;5.90;;
64560;SDS011;50960;46.838;16.838;2023-07-09T05:17:22;7.57;;;5.97;;
64560;SDS011;50960;46.838;16.838;2023-07-09T05:19:49;7.15;;;5.90;;
64560;SDS011;50960;46.838;16.838;2023-07-09T05:22:16;9.18;;;6.53;;
64560;SDS011;50960;46.838;16.838;2023-07-09T05:24:43;6.88;;;6.05;;
64560;SDS011;50960;46.838;16.838;2023-07-09T05:27:09;6.68;;;5.97;;
64560;SDS011;50960;46.838;16.838;2023-07-09T05:29:35;6.90;;;5.80;;
64560;SDS011;50960;46.838;16.838;2023-07-09T05:32:01;7.38;;;5.60;;
64560;SDS011;50960;46.838;16.838;2023-07-09T05:34:28;7.78;;;6.15;;
64560;SDS011;50960;46.838;16.838;2023-07-09T05:36:54;9.85;;;5.75;;
64560;SDS011;50960;46.838;16.838;2023-07-09T05:39:20;10.02;;;6.03;;
64560;SDS011;50960;46.838;16.838;2023-07-09T05:41:47;6.30;;;5.70;;
64560;SDS011;50960;46.838;16.838;2023-07-09T05:44:13;6.68;;;5.95;;
64560;SDS011;50960;46.838;16.838;2023-07-09T05:46:39;7.72;;;5.93;;
64560;SDS011;50960;46.838;16.838;2023-07-09T05:49:05;7.05;;;5.70;;
64560;SDS011;50960;46.838;16.838;2023-07-09T05:51:33;7.00;;;5.85;;
64560;SDS011;50960;46.838;16.838;2023-07-09T05:53:59;8.43;;;5.85;;
64560;SDS011;50960;46.838;16.838;2023-07-09T05:56:26;6.97;;;5.88;;
64560;SDS011;50960;46.838;16.838;2023-07-09T05:58:52;6.63;;;5.80;;
64560;SDS011;50960;46.838;16.838;2023-07-09T06:01:18;8.00;;;6.43;;
64560;SDS011;50960;46.838;16.838;2023-07-09T06:03:45;7.25;;;5.80;;
64560;SDS011;50960;46.838;16.838;2023-07-09T06:06:12;6.53;;;5.93;;
64560;SDS011;50960;46.838;16.838;2023-07-09T06:08:38;6.90;;;6.22;;
64560;SDS011;50960;46.838;16.838;2023-07-09T06:11:04;7.53;;;5.90;;
64560;SDS011;50960;46.838;16.838;2023-07-09T06:13:31;7.63;;;6.40;;
64560;SDS011;50960;46.838;16.838;2023-07-09T06:15:58;6.60;;;5.97;;
64560;SDS011;50960;46.838;16.838;2023-07-09T06:18:25;6.97;;;6.20;;
64560;SDS011;50960;46.838;16.838;2023-07-09T06:20:56;7.18;;;6.20;;
64560;SDS011;50960;46.838;16.838;2023-07-09T06:23:25;12.55;;;11.25;;
64560;SDS011;50960;46.838;16.838;2023-07-09T06:25:52;8.50;;;7.50;;
64560;SDS011;50960;46.838;16.838;2023-07-09T06:28:19;17.13;;;14.48;;
64560;SDS011;50960;46.838;16.838;2023-07-09T06:30:48;8.68;;;7.03;;
64560;SDS011;50960;46.838;16.838;2023-07-09T06:33:16;8.50;;;6.70;;
64560;SDS011;50960;46.838;16.838;2023-07-09T06:35:51;8.73;;;7.90;;
64560;SDS011;50960;46.838;16.838;2023-07-09T06:38:19;10.32;;;7.78;;
64560;SDS011;50960;46.838;16.838;2023-07-09T06:40:46;7.22;;;6.55;;
64560;SDS011;50960;46.838;16.838;2023-07-09T06:43:13;9.65;;;7.15;;
64560;SDS011;50960;46.838;16.838;2023-07-09T06:45:50;8.40;;;6.55;;
64560;SDS011;50960;46.838;16.838;2023-07-09T06:48:24;9.10;;;6.25;;
64560;SDS011;50960;46.838;16.838;2023-07-09T06:50:53;6.50;;;5.85;;
64560;SDS011;50960;46.838;16.838;2023-07-09T06:53:22;6.82;;;6.13;;
64560;SDS011;50960;46.838;16.838;2023-07-09T06:55:48;7.97;;;6.53;;
64560;SDS011;50960;46.838;16.838;2023-07-09T06:58:16;6.97;;;5.53;;
64560;SDS011;50960;46.838;16.838;2023-07-09T07:00:42;7.80;;;5.90;;
64560;SDS011;50960;46.838;16.838;2023-07-09T07:03:09;7.28;;;6.25;;
64560;SDS011;50960;46.838;16.838;2023-07-09T07:05:36;7.68;;;6.40;;
64560;SDS011;50960;46.838;16.838;2023-07-09T07:08:02;8.30;;;5.68;;
64560;SDS011;50960;46.838;16.838;2023-07-09T07:10:29;9.32;;;5.22;;
64560;SDS011;50960;46.838;16.838;2023-07-09T07:12:56;11.52;;;6.28;;
64560;SDS011;50960;46.838;16.838;2023-07-09T07:15:22;9.23;;;6.35;;
64560;SDS011;50960;46.838;16.838;2023-07-09T07:17:48;7.55;;;5.57;;
64560;SDS011;50960;46.838;16.838;2023-07-09T07:20:15;6.35;;;5.43;;
64560;SDS011;50960;46.838;16.838;2023-07-09T07:22:42;9.10;;;5.68;;
64560;SDS011;50960;46.838;16.838;2023-07-09T07:25:08;8.18;;;5.85;;
64560;SDS011;50960;46.838;16.838;2023-07-09T07:27:36;6.93;;;5.07;;
64560;SDS011;50960;46.838;16.838;2023-07-09T07:30:03;9.63;;;5.07;;
64560;SDS011;50960;46.838;16.838;2023-07-09T07:32:30;6.53;;;4.95;;
64560;SDS011;50960;46.838;16.838;2023-07-09T07:34:58;5.55;;;4.40;;
64560;SDS011;50960;46.838;16.838;2023-07-09T07:37:24;4.82;;;4.20;;
64560;SDS011;50960;46.838;16.838;2023-07-09T07:39:50;4.82;;;4.15;;
64560;SDS011;50960;46.838;16.838;2023-07-09T07:42:17;5.40;;;4.43;;
64560;SDS011;50960;46.838;16.838;2023-07-09T07:44:43;5.13;;;4.05;;
64560;SDS011;50960;46.838;16.838;2023-07-09T07:47:09;5.78;;;4.43;;
64560;SDS011;50960;46.838;16.838;2023-07-09T07:49:37;4.47;;;3.80;;
64560;SDS011;50960;46.838;16.838;2023-07-09T07:52:04;4.53;;;4.13;;
64560;SDS011;50960;46.838;16.838;2023-07-09T07:54:31;5.72;;;4.47;;
64560;SDS011;50960;46.838;16.838;2023-07-09T07:56:57;4.95;;;4.45;;
64560;SDS011;50960;46.838;16.838;2023-07-09T07:59:24;4.30;;;4.00;;
64560;SDS011;50960;46.838;16.838;2023-07-09T08:01:51;5.68;;;4.05;;
64560;SDS011;50960;46.838;16.838;2023-07-09T08:04:17;7.80;;;4.40;;
64560;SDS011;50960;46.838;16.838;2023-07-09T08:06:44;5.93;;;4.40;;
64560;SDS011;50960;46.838;16.838;2023-07-09T08:09:10;4.85;;;4.35;;
64560;SDS011;50960;46.838;16.838;2023-07-09T08:11:36;4.47;;;4.07;;
64560;SDS011;50960;46.838;16.838;2023-07-09T08:14:03;5.13;;;4.43;;
64560;SDS011;50960;46.838;16.838;2023-07-09T08:16:29;5.45;;;4.40;;
64560;SDS011;50960;46.838;16.838;2023-07-09T08:18:55;4.88;;;4.20;;
64560;SDS011;50960;46.838;16.838;2023-07-09T08:21:22;4.45;;;3.97;;
64560;SDS011;50960;46.838;16.838;2023-07-09T08:23:48;6.57;;;4.13;;
64560;SDS011;50960;46.838;16.838;2023-07-09T08:26:14;4.43;;;3.88;;
64560;SDS011;50960;46.838;16.838;2023-07-09T08:28:40;5.75;;;4.22;;
64560;SDS011;50960;46.838;16.838;2023-07-09T08:31:07;4.90;;;4.07;;
64560;SDS011;50960;46.838;16.838;2023-07-09T08:33:34;6.80;;;4.10;;
64560;SDS011;50960;46.838;16.838;2023-07-09T08:36:01;5.55;;;4.00;;
64560;SDS011;50960;46.838;16.838;2023-07-09T08:38:29;4.43;;;3.80;;
64560;SDS011;50960;46.838;16.838;2023-07-09T08:40:59;4.88;;;3.97;;
64560;SDS011;50960;46.838;16.838;2023-07-09T08:48:54;5.50;;;4.00;;
64560;SDS011;50960;46.838;16.838;2023-07-09T08:54:04;4.20;;;3.72;;
64560;SDS011;50960;46.838;16.838;2023-07-09T08:56:41;4.72;;;4.10;;
64560;SDS011;50960;46.838;16.838;2023-07-09T08:59:08;5.00;;;4.20;;
64560;SDS011;50960;46.838;16.838;2023-07-09T09:01:44;4.45;;;4.05;;
64560;SDS011;50960;46.838;16.838;2023-07-09T09:04:27;4.28;;;3.88;;
64560;SDS011;50960;46.838;16.838;2023-07-09T09:06:59;7.05;;;4.32;;
64560;SDS011;50960;46.838;16.838;2023-07-09T09:09:38;4.70;;;4.10;;
64560;SDS011;50960;46.838;16.838;2023-07-09T09:15:21;4.53;;;3.90;;
64560;SDS011;50960;46.838;16.838;2023-07-09T09:17:50;6.20;;;4.05;;
64560;SDS011;50960;46.838;16.838;2023-07-09T09:20:23;5.25;;;4.03;;
64560;SDS011;50960;46.838;16.838;2023-07-09T09:22:52;5.18;;;3.95;;
64560;SDS011;50960;46.838;16.838;2023-07-09T09:25:29;5.25;;;4.10;;
64560;SDS011;50960;46.838;16.838;2023-07-09T09:27:59;4.53;;;4.13;;
64560;SDS011;50960;46.838;16.838;2023-07-09T09:30:26;5.93;;;4.00;;
64560;SDS011;50960;46.838;16.838;2023-07-09T09:35:24;4.75;;;4.07;;
64560;SDS011;50960;46.838;16.838;2023-07-09T09:37:53;4.80;;;4.03;;
64560;SDS011;50960;46.838;16.838;2023-07-09T09:40:23;4.25;;;3.85;;
64560;SDS011;50960;46.838;16.838;2023-07-09T09:42:51;4.00;;;3.70;;
64560;SDS011;50960;46.838;16.838;2023-07-09T09:45:21;4.45;;;4.07;;
64560;SDS011;50960;46.838;16.838;2023-07-09T09:47:51;5.43;;;4.10;;
64560;SDS011;50960;46.838;16.838;2023-07-09T09:50:19;4.70;;;4.25;;
64560;SDS011;50960;46.838;16.838;2023-07-09T09:52:47;4.68;;;4.22;;
64560;SDS011;50960;46.838;16.838;2023-07-09T09:55:24;5.20;;;3.92;;
64560;SDS011;50960;46.838;16.838;2023-07-09T09:57:53;4.75;;;4.00;;
64560;SDS011;50960;46.838;16.838;2023-07-09T10:00:25;4.50;;;4.10;;
64560;SDS011;50960;46.838;16.838;2023-07-09T10:02:59;9.55;;;4.38;;
64560;SDS011;50960;46.838;16.838;2023-07-09T10:05:31;5.63;;;3.83;;
64560;SDS011;50960;46.838;16.838;2023-07-09T10:11:10;4.43;;;3.97;;
64560;SDS011;50960;46.838;16.838;2023-07-09T10:13:39;6.65;;;4.20;;
64560;SDS011;50960;46.838;16.838;2023-07-09T10:16:21;4.90;;;4.00;;
64560;SDS011;50960;46.838;16.838;2023-07-09T10:24:17;3.97;;;3.65;;
64560;SDS011;50960;46.838;16.838;2023-07-09T10:27:14;6.38;;;3.97;;
64560;SDS011;50960;46.838;16.838;2023-07-09T10:29:51;4.25;;;3.70;;
64560;SDS011;50960;46.838;16.838;2023-07-09T10:35:27;6.65;;;3.83;;
64560;SDS011;50960;46.838;16.838;2023-07-09T10:41:10;5.07;;;3.90;;
64560;SDS011;50960;46.838;16.838;2023-07-09T10:46:11;4.22;;;3.63;;
64560;SDS011;50960;46.838;16.838;2023-07-09T10:48:43;7.00;;;4.07;;
64560;SDS011;50960;46.838;16.838;2023-07-09T10:51:31;4.35;;;3.92;;
64560;SDS011;50960;46.838;16.838;2023-07-09T10:56:35;4.30;;;3.90;;
64560;SDS011;50960;46.838;16.838;2023-07-09T11:01:43;5.32;;;4.40;;
64560;SDS011;50960;46.838;16.838;2023-07-09T11:04:31;5.13;;;4.00;;
64560;SDS011;50960;46.838;16.838;2023-07-09T11:07:03;4.40;;;4.00;;
64560;SDS011;50960;46.838;16.838;2023-07-09T11:09:34;5.38;;;4.10;;
64560;SDS011;50960;46.838;16.838;2023-07-09T11:12:05;4.57;;;4.18;;
64560;SDS011;50960;46.838;16.838;2023-07-09T11:14:42;5.78;;;4.68;;
64560;SDS011;50960;46.838;16.838;2023-07-09T11:17:18;4.30;;;3.90;;
64560;SDS011;50960;46.838;16.838;2023-07-09T11:19:47;5.50;;;3.88;;
64560;SDS011;50960;46.838;16.838;2023-07-09T11:22:52;4.93;;;3.97;;
64560;SDS011;50960;46.838;16.838;2023-07-09T11:25:48;4.55;;;4.05;;
64560;SDS011;50960;46.838;16.838;2023-07-09T11:28:17;4.47;;;4.07;;
64560;SDS011;50960;46.838;16.838;2023-07-09T11:31:07;4.57;;;3.85;;
64560;SDS011;50960;46.838;16.838;2023-07-09T11:33:56;5.28;;;4.55;;
64560;SDS011;50960;46.838;16.838;2023-07-09T11:36:28;5.70;;;4.50;;
64560;SDS011;50960;46.838;16.838;2023-07-09T11:38:56;4.85;;;3.88;;
64560;SDS011;50960;46.838;16.838;2023-07-09T11:41:34;5.47;;;4.45;;
64560;SDS011;50960;46.838;16.838;2023-07-09T11:44:11;5.30;;;4.47;;
64560;SDS011;50960;46.838;16.838;2023-07-09T11:47:24;4.93;;;4.10;;
64560;SDS011;50960;46.838;16.838;2023-07-09T11:50:00;7.72;;;4.18;;
64560;SDS011;50960;46.838;16.838;2023-07-09T11:52:45;4.75;;;4.10;;
64560;SDS011;50960;46.838;16.838;2023-07-09T11:57:54;4.80;;;4.07;;
64560;SDS011;50960;46.838;16.838;2023-07-09T12:00:29;6.32;;;4.22;;
64560;SDS011;50960;46.838;16.838;2023-07-09T12:03:03;4.38;;;3.97;;
64560;SDS011;50960;46.838;16.838;2023-07-09T12:05:31;5.00;;;4.50;;
64560;SDS011;50960;46.838;16.838;2023-07-09T12:07:58;6.50;;;4.10;;
64560;SDS011;50960;46.838;16.838;2023-07-09T12:10:32;6.45;;;4.07;;
64560;SDS011;50960;46.838;16.838;2023-07-09T12:13:00;4.25;;;3.92;;
64560;SDS011;50960;46.838;16.838;2023-07-09T12:15:29;5.93;;;4.22;;
64560;SDS011;50960;46.838;16.838;2023-07-09T12:17:58;4.97;;;4.13;;
64560;SDS011;50960;46.838;16.838;2023-07-09T12:20:29;4.78;;;4.32;;
64560;SDS011;50960;46.838;16.838;2023-07-09T12:22:56;5.30;;;4.35;;
64560;SDS011;50960;46.838;16.838;2023-07-09T12:25:24;4.40;;;4.00;;
64560;SDS011;50960;46.838;16.838;2023-07-09T12:27:53;5.13;;;3.80;;
64560;SDS011;50960;46.838;16.838;2023-07-09T12:30:19;4.80;;;4.25;;
64560;SDS011;50960;46.838;16.838;2023-07-09T12:32:47;4.75;;;4.05;;
64560;SDS011;50960;46.838;16.838;2023-07-09T12:35:18;4.47;;;4.05;;
64560;SDS011;50960;46.838;16.838;2023-07-09T12:37:46;4.80;;;4.30;;
64560;SDS011;50960;46.838;16.838;2023-07-09T12:40:17;4.32;;;3.92;;
64560;SDS011;50960;46.838;16.838;2023-07-09T12:42:47;4.82;;;4.28;;
64560;SDS011;50960;46.838;16.838;2023-07-09T12:45:21;4.45;;;4.00;;
64560;SDS011;50960;46.838;16.838;2023-07-09T12:47:47;4.22;;;3.83;;
64560;SDS011;50960;46.838;16.838;2023-07-09T12:50:19;5.63;;;4.22;;
64560;SDS011;50960;46.838;16.838;2023-07-09T12:53:16;4.95;;;3.90;;
64560;SDS011;50960;46.838;16.838;2023-07-09T12:55:44;4.72;;;3.85;;
64560;SDS011;50960;46.838;16.838;2023-07-09T12:58:20;4.03;;;3.63;;
64560;SDS011;50960;46.838;16.838;2023-07-09T13:00:49;5.20;;;4.10;;
64560;SDS011;50960;46.838;16.838;2023-07-09T13:03:19;6.85;;;4.25;;
64560;SDS011;50960;46.838;16.838;2023-07-09T13:06:21;4.63;;;4.22;;
64560;SDS011;50960;46.838;16.838;2023-07-09T13:08:55;4.88;;;3.95;;
64560;SDS011;50960;46.838;16.838;2023-07-09T13:11:24;5.70;;;3.92;;
64560;SDS011;50960;46.838;16.838;2023-07-09T13:13:59;4.20;;;3.80;;
64560;SDS011;50960;46.838;16.838;2023-07-09T13:16:37;5.07;;;3.92;;
64560;SDS011;50960;46.838;16.838;2023-07-09T13:19:05;5.88;;;3.88;;
64560;SDS011;50960;46.838;16.838;2023-07-09T13:21:31;4.60;;;4.20;;
64560;SDS011;50960;46.838;16.838;2023-07-09T13:23:58;5.00;;;3.85;;
64560;SDS011;50960;46.838;16.838;2023-07-09T13:26:24;4.72;;;3.95;;
64560;SDS011;50960;46.838;16.838;2023-07-09T13:28:51;4.82;;;4.00;;
64560;SDS011;50960;46.838;16.838;2023-07-09T13:31:19;4.90;;;4.28;;
64560;SDS011;50960;46.838;16.838;2023-07-09T13:33:53;6.68;;;4.07;;
64560;SDS011;50960;46.838;16.838;2023-07-09T13:36:23;4.28;;;3.88;;
64560;SDS011;50960;46.838;16.838;2023-07-09T13:38:49;4.53;;;4.03;;
64560;SDS011;50960;46.838;16.838;2023-07-09T13:41:17;5.60;;;4.50;;
64560;SDS011;50960;46.838;16.838;2023-07-09T13:43:47;4.15;;;3.85;;
64560;SDS011;50960;46.838;16.838;2023-07-09T13:46:14;4.80;;;4.20;;
64560;SDS011;50960;46.838;16.838;2023-07-09T13:48:41;4.20;;;3.78;;
64560;SDS011;50960;46.838;16.838;2023-07-09T13:51:16;4.30;;;3.90;;
64560;SDS011;50960;46.838;16.838;2023-07-09T13:53:43;4.30;;;3.90;;
64560;SDS011;50960;46.838;16.838;2023-07-09T13:56:10;5.38;;;3.97;;
64560;SDS011;50960;46.838;16.838;2023-07-09T13:58:37;6.25;;;4.10;;
64560;SDS011;50960;46.838;16.838;2023-07-09T14:01:13;4.13;;;3.83;;
64560;SDS011;50960;46.838;16.838;2023-07-09T14:03:40;4.75;;;4.10;;
64560;SDS011;50960;46.838;16.838;2023-07-09T14:06:14;6.05;;;3.88;;
64560;SDS011;50960;46.838;16.838;2023-07-09T14:08:41;4.38;;;3.97;;
64560;SDS011;50960;46.838;16.838;2023-07-09T14:11:12;4.40;;;4.00;;
64560;SDS011;50960;46.838;16.838;2023-07-09T14:13:43;4.05;;;3.75;;
64560;SDS011;50960;46.838;16.838;2023-07-09T14:16:12;4.25;;;3.85;;
64560;SDS011;50960;46.838;16.838;2023-07-09T14:18:40;4.55;;;4.15;;
64560;SDS011;50960;46.838;16.838;2023-07-09T14:21:14;4.13;;;3.75;;
64560;SDS011;50960;46.838;16.838;2023-07-09T14:23:42;4.68;;;4.28;;
64560;SDS011;50960;46.838;16.838;2023-07-09T14:26:09;5.20;;;3.92;;
64560;SDS011;50960;46.838;16.838;2023-07-09T14:28:36;4.00;;;3.70;;
64560;SDS011;50960;46.838;16.838;2023-07-09T14:31:04;6.90;;;4.18;;
64560;SDS011;50960;46.838;16.838;2023-07-09T14:33:33;4.78;;;4.38;;
64560;SDS011;50960;46.838;16.838;2023-07-09T14:36:00;4.45;;;4.07;;
64560;SDS011;50960;46.838;16.838;2023-07-09T14:38:27;5.75;;;4.32;;
64560;SDS011;50960;46.838;16.838;2023-07-09T14:40:55;4.53;;;4.13;;
64560;SDS011;50960;46.838;16.838;2023-07-09T14:43:21;6.55;;;4.15;;
64560;SDS011;50960;46.838;16.838;2023-07-09T14:45:48;4.20;;;3.80;;
64560;SDS011;50960;46.838;16.838;2023-07-09T14:48:18;4.10;;;3.80;;
64560;SDS011;50960;46.838;16.838;2023-07-09T14:50:45;5.13;;;3.80;;
64560;SDS011;50960;46.838;16.838;2023-07-09T14:53:13;4.35;;;4.00;;
64560;SDS011;50960;46.838;16.838;2023-07-09T14:55:40;5.28;;;4.40;;
64560;SDS011;50960;46.838;16.838;2023-07-09T14:58:18;4.97;;;4.57;;
64560;SDS011;50960;46.838;16.838;2023-07-09T15:00:45;5.28;;;3.80;;
64560;SDS011;50960;46.838;16.838;2023-07-09T15:03:22;5.95;;;3.85;;
64560;SDS011;50960;46.838;16.838;2023-07-09T15:05:49;4.43;;;4.03;;
64560;SDS011;50960;46.838;16.838;2023-07-09T15:08:17;5.50;;;4.10;;
64560;SDS011;50960;46.838;16.838;2023-07-09T15:10:45;4.97;;;3.85;;
64560;SDS011;50960;46.838;16.838;2023-07-09T15:13:16;4.82;;;4.00;;
64560;SDS011;50960;46.838;16.838;2023-07-09T15:15:43;4.70;;;4.03;;
64560;SDS011;50960;46.838;16.838;2023-07-09T15:18:11;4.72;;;4.20;;
64560;SDS011;50960;46.838;16.838;2023-07-09T15:20:38;4.63;;;4.13;;
64560;SDS011;50960;46.838;16.838;2023-07-09T15:23:05;4.40;;;4.00;;
64560;SDS011;50960;46.838;16.838;2023-07-09T15:25:32;5.35;;;4.30;;
64560;SDS011;50960;46.838;16.838;2023-07-09T15:27:59;4.80;;;4.10;;
64560;SDS011;50960;46.838;16.838;2023-07-09T15:30:26;5.78;;;4.18;;
64560;SDS011;50960;46.838;16.838;2023-07-09T15:32:57;4.80;;;4.32;;
64560;SDS011;50960;46.838;16.838;2023-07-09T15:35:24;4.28;;;3.88;;
64560;SDS011;50960;46.838;16.838;2023-07-09T15:37:51;4.55;;;4.15;;
64560;SDS011;50960;46.838;16.838;2023-07-09T15:40:22;4.40;;;4.00;;
64560;SDS011;50960;46.838;16.838;2023-07-09T15:42:50;4.38;;;3.88;;
64560;SDS011;50960;46.838;16.838;2023-07-09T15:45:18;4.20;;;3.80;;
64560;SDS011;50960;46.838;16.838;2023-07-09T15:47:45;4.97;;;4.45;;
64560;SDS011;50960;46.838;16.838;2023-07-09T15:50:13;4.72;;;4.32;;
64560;SDS011;50960;46.838;16.838;2023-07-09T15:52:40;5.72;;;4.70;;
64560;SDS011;50960;46.838;16.838;2023-07-09T15:55:12;4.47;;;4.00;;
64560;SDS011;50960;46.838;16.838;2023-07-09T16:00:19;4.60;;;4.10;;
64560;SDS011;50960;46.838;16.838;2023-07-09T16:02:46;5.68;;;4.32;;
64560;SDS011;50960;46.838;16.838;2023-07-09T16:05:21;5.20;;;4.68;;
64560;SDS011;50960;46.838;16.838;2023-07-09T16:07:52;4.90;;;4.50;;
64560;SDS011;50960;46.838;16.838;2023-07-09T16:10:19;4.38;;;3.97;;
64560;SDS011;50960;46.838;16.838;2023-07-09T16:12:46;4.22;;;3.83;;
64560;SDS011;50960;46.838;16.838;2023-07-09T16:15:16;4.60;;;4.05;;
64560;SDS011;50960;46.838;16.838;2023-07-09T16:17:45;4.25;;;3.88;;
64560;SDS011;50960;46.838;16.838;2023-07-09T16:20:14;6.93;;;3.97;;
64560;SDS011;50960;46.838;16.838;2023-07-09T16:22:41;4.72;;;4.32;;
64560;SDS011;50960;46.838;16.838;2023-07-09T16:25:16;7.45;;;3.67;;
64560;SDS011;50960;46.838;16.838;2023-07-09T16:27:43;4.65;;;4.25;;
64560;SDS011;50960;46.838;16.838;2023-07-09T16:30:11;4.90;;;4.22;;
64560;SDS011;50960;46.838;16.838;2023-07-09T16:32:39;4.25;;;3.83;;
64560;SDS011;50960;46.838;16.838;2023-07-09T16:35:05;5.57;;;5.07;;
64560;SDS011;50960;46.838;16.838;2023-07-09T16:37:32;4.72;;;3.97;;
64560;SDS011;50960;46.838;16.838;2023-07-09T16:39:58;5.13;;;3.95;;
64560;SDS011;50960;46.838;16.838;2023-07-09T16:42:26;5.32;;;4.13;;
64560;SDS011;50960;46.838;16.838;2023-07-09T16:44:52;4.07;;;3.67;;
64560;SDS011;50960;46.838;16.838;2023-07-09T16:47:19;5.70;;;4.00;;
64560;SDS011;50960;46.838;16.838;2023-07-09T16:49:56;4.78;;;4.28;;
64560;SDS011;50960;46.838;16.838;2023-07-09T16:52:23;4.57;;;4.18;;
64560;SDS011;50960;46.838;16.838;2023-07-09T16:54:51;6.13;;;4.43;;
64560;SDS011;50960;46.838;16.838;2023-07-09T16:57:22;4.90;;;4.38;;
64560;SDS011;50960;46.838;16.838;2023-07-09T16:59:52;4.93;;;4.43;;
64560;SDS011;50960;46.838;16.838;2023-07-09T17:04:46;6.05;;;4.43;;
64560;SDS011;50960;46.838;16.838;2023-07-09T17:07:12;5.07;;;4.30;;
64560;SDS011;50960;46.838;16.838;2023-07-09T17:09:39;4.97;;;4.45;;
64560;SDS011;50960;46.838;16.838;2023-07-09T17:12:09;6.38;;;4.95;;
64560;SDS011;50960;46.838;16.838;2023-07-09T17:14:36;5.25;;;4.55;;
64560;SDS011;50960;46.838;16.838;2023-07-09T17:17:08;4.97;;;4.28;;
64560;SDS011;50960;46.838;16.838;2023-07-09T17:19:36;4.90;;;4.43;;
64560;SDS011;50960;46.838;16.838;2023-07-09T17:22:04;5.45;;;4.30;;
64560;SDS011;50960;46.838;16.838;2023-07-09T17:24:36;4.70;;;4.30;;
64560;SDS011;50960;46.838;16.838;2023-07-09T17:27:03;5.82;;;4.47;;
64560;SDS011;50960;46.838;16.838;2023-07-09T17:29:30;6.57;;;4.65;;
64560;SDS011;50960;46.838;16.838;2023-07-09T17:31:57;5.22;;;4.72;;
64560;SDS011;50960;46.838;16.838;2023-07-09T17:34:24;5.40;;;4.72;;
64560;SDS011;50960;46.838;16.838;2023-07-09T17:36:50;4.68;;;4.28;;
64560;SDS011;50960;46.838;16.838;2023-07-09T17:39:18;5.43;;;4.72;;
64560;SDS011;50960;46.838;16.838;2023-07-09T17:41:47;5.72;;;4.60;;
64560;SDS011;50960;46.838;16.838;2023-07-09T17:44:15;6.97;;;4.70;;
64560;SDS011;50960;46.838;16.838;2023-07-09T17:46:50;5.80;;;5.30;;
64560;SDS011;50960;46.838;16.838;2023-07-09T17:49:30;6.47;;;5.38;;
64560;SDS011;50960;46.838;16.838;2023-07-09T17:51:58;5.28;;;4.78;;
64560;SDS011;50960;46.838;16.838;2023-07-09T17:54:26;5.10;;;4.60;;
64560;SDS011;50960;46.838;16.838;2023-07-09T17:56:54;5.40;;;4.90;;
64560;SDS011;50960;46.838;16.838;2023-07-09T17:59:25;6.05;;;5.45;;
64560;SDS011;50960;46.838;16.838;2023-07-09T18:02:13;5.13;;;4.63;;
64560;SDS011;50960;46.838;16.838;2023-07-09T18:04:42;6.15;;;5.05;;
64560;SDS011;50960;46.838;16.838;2023-07-09T18:07:17;4.88;;;4.47;;
64560;SDS011;50960;46.838;16.838;2023-07-09T18:09:49;5.30;;;4.80;;
64560;SDS011;50960;46.838;16.838;2023-07-09T18:12:17;5.45;;;4.90;;
64560;SDS011;50960;46.838;16.838;2023-07-09T18:14:47;5.38;;;4.90;;
64560;SDS011;50960;46.838;16.838;2023-07-09T18:17:17;6.05;;;4.85;;
64560;SDS011;50960;46.838;16.838;2023-07-09T18:19:49;5.63;;;5.00;;
64560;SDS011;50960;46.838;16.838;2023-07-09T18:22:18;5.20;;;4.68;;
64560;SDS011;50960;46.838;16.838;2023-07-09T18:24:48;6.10;;;5.32;;
64560;SDS011;50960;46.838;16.838;2023-07-09T18:27:24;6.18;;;5.20;;
64560;SDS011;50960;46.838;16.838;2023-07-09T18:29:54;6.90;;;5.75;;
64560;SDS011;50960;46.838;16.838;2023-07-09T18:32:22;7.18;;;5.38;;
64560;SDS011;50960;46.838;16.838;2023-07-09T18:34:51;5.82;;;4.88;;
64560;SDS011;50960;46.838;16.838;2023-07-09T18:37:21;6.47;;;4.95;;
64560;SDS011;50960;46.838;16.838;2023-07-09T18:39:49;5.18;;;4.50;;
64560;SDS011;50960;46.838;16.838;2023-07-09T18:42:18;6.38;;;4.80;;
64560;SDS011;50960;46.838;16.838;2023-07-09T18:44:46;6.72;;;4.97;;
64560;SDS011;50960;46.838;16.838;2023-07-09T18:47:14;6.07;;;4.88;;
64560;SDS011;50960;46.838;16.838;2023-07-09T18:49:42;7.20;;;5.18;;
64560;SDS011;50960;46.838;16.838;2023-07-09T18:52:10;5.88;;;5.22;;
64560;SDS011;50960;46.838;16.838;2023-07-09T18:54:39;5.35;;;4.85;;
64560;SDS011;50960;46.838;16.838;2023-07-09T18:57:10;5.60;;;4.97;;
64560;SDS011;50960;46.838;16.838;2023-07-09T18:59:37;5.75;;;4.60;;
64560;SDS011;50960;46.838;16.838;2023-07-09T19:02:11;6.57;;;5.00;;
64560;SDS011;50960;46.838;16.838;2023-07-09T19:04:44;5.38;;;4.88;;
64560;SDS011;50960;46.838;16.838;2023-07-09T19:07:15;5.05;;;4.65;;
64560;SDS011;50960;46.838;16.838;2023-07-09T19:09:43;5.65;;;5.10;;
64560;SDS011;50960;46.838;16.838;2023-07-09T19:12:10;6.20;;;5.18;;
64560;SDS011;50960;46.838;16.838;2023-07-09T19:14:37;7.50;;;5.10;;
64560;SDS011;50960;46.838;16.838;2023-07-09T19:17:05;5.70;;;5.10;;